Terminal Aerodrome Forecast
Issued by NWS

Home | Current Version | Previous Version | Text Only | Print | Product List | Glossary Off
Versions: 1 2 3 4 5 6 7 8 9 10 11 12 13 14 15 16 17

000
FTUS43 KICT 212331
TAFHUT
TAF
KHUT 212331Z 2200/2224 26010KT P6SM SCT100
     FM220600 29016G23KT P6SM OVC020
     FM220900 30020G30KT 5SM -SN OVC015
     FM221200 31026G37KT 3SM -SN BLSN OVC015
     FM221800 32027G38KT 5SM BLSN BKN025
     FM222100 32024G35KT P6SM BKN100=

USA.gov is the U.S. government's official web portal to all federal, state and local government web resources and services.